sensor_id;sensor_type;location;lat;lon;timestamp;temperature;humidity
52517;DHT22;59374;53.210;5.726;2022-07-17T00:00:38;11.70;99.90
52517;DHT22;59374;53.210;5.726;2022-07-17T00:03:10;11.70;99.90
52517;DHT22;59374;53.210;5.726;2022-07-17T00:05:35;11.60;99.90
52517;DHT22;59374;53.210;5.726;2022-07-17T00:08:01;11.70;99.90
52517;DHT22;59374;53.210;5.726;2022-07-17T00:10:26;11.70;99.90
52517;DHT22;59374;53.210;5.726;2022-07-17T00:12:52;11.60;99.90
52517;DHT22;59374;53.210;5.726;2022-07-17T00:15:18;11.60;99.90
52517;DHT22;59374;53.210;5.726;2022-07-17T00:17:44;11.70;99.90
52517;DHT22;59374;53.210;5.726;2022-07-17T00:20:09;11.60;99.90
52517;DHT22;59374;53.210;5.726;2022-07-17T00:22:35;11.60;99.90
52517;DHT22;59374;53.210;5.726;2022-07-17T00:25:01;11.60;99.90
52517;DHT22;59374;53.210;5.726;2022-07-17T00:27:26;11.60;99.90
52517;DHT22;59374;53.210;5.726;2022-07-17T00:29:52;11.50;99.90
52517;DHT22;59374;53.210;5.726;2022-07-17T00:32:17;11.50;99.90
52517;DHT22;59374;53.210;5.726;2022-07-17T00:34:43;11.50;99.90
52517;DHT22;59374;53.210;5.726;2022-07-17T00:37:08;11.50;99.90
52517;DHT22;59374;53.210;5.726;2022-07-17T00:39:34;11.50;99.90
52517;DHT22;59374;53.210;5.726;2022-07-17T00:41:59;11.40;99.90
52517;DHT22;59374;53.210;5.726;2022-07-17T00:44:25;11.40;99.90
52517;DHT22;59374;53.210;5.726;2022-07-17T00:46:51;11.40;99.90
52517;DHT22;59374;53.210;5.726;2022-07-17T00:49:17;11.40;99.90
52517;DHT22;59374;53.210;5.726;2022-07-17T00:51:42;11.40;99.90
52517;DHT22;59374;53.210;5.726;2022-07-17T00:54:08;11.40;99.90
52517;DHT22;59374;53.210;5.726;2022-07-17T00:56:33;11.30;99.90
52517;DHT22;59374;53.210;5.726;2022-07-17T00:58:59;11.30;99.90
52517;DHT22;59374;53.210;5.726;2022-07-17T01:01:25;11.30;99.90
52517;DHT22;59374;53.210;5.726;2022-07-17T01:03:51;11.30;99.90
52517;DHT22;59374;53.210;5.726;2022-07-17T01:06:16;11.30;99.90
52517;DHT22;59374;53.210;5.726;2022-07-17T01:08:42;11.30;99.90
52517;DHT22;59374;53.210;5.726;2022-07-17T01:11:08;11.30;99.90
52517;DHT22;59374;53.210;5.726;2022-07-17T01:13:33;11.30;99.90
52517;DHT22;59374;53.210;5.726;2022-07-17T01:15:59;11.30;99.90
52517;DHT22;59374;53.210;5.726;2022-07-17T01:18:24;11.30;99.90
52517;DHT22;59374;53.210;5.726;2022-07-17T01:20:50;11.30;99.90
52517;DHT22;59374;53.210;5.726;2022-07-17T01:23:16;11.20;99.90
52517;DHT22;59374;53.210;5.726;2022-07-17T01:25:42;11.20;99.90
52517;DHT22;59374;53.210;5.726;2022-07-17T01:28:07;11.30;99.90
52517;DHT22;59374;53.210;5.726;2022-07-17T01:30:34;11.30;99.90
52517;DHT22;59374;53.210;5.726;2022-07-17T01:32:59;11.20;99.90
52517;DHT22;59374;53.210;5.726;2022-07-17T01:35:25;11.20;99.90
52517;DHT22;59374;53.210;5.726;2022-07-17T01:37:50;11.20;99.90
52517;DHT22;59374;53.210;5.726;2022-07-17T01:40:16;11.20;99.90
52517;DHT22;59374;53.210;5.726;2022-07-17T01:42:43;11.20;99.90
52517;DHT22;59374;53.210;5.726;2022-07-17T01:45:09;11.10;99.90
52517;DHT22;59374;53.210;5.726;2022-07-17T01:47:35;11.10;99.90
52517;DHT22;59374;53.210;5.726;2022-07-17T01:50:00;11.10;99.90
52517;DHT22;59374;53.210;5.726;2022-07-17T01:52:27;11.10;99.90
52517;DHT22;59374;53.210;5.726;2022-07-17T01:54:53;11.10;99.90
52517;DHT22;59374;53.210;5.726;2022-07-17T01:57:18;11.00;99.90
52517;DHT22;59374;53.210;5.726;2022-07-17T01:59:44;11.00;99.90
52517;DHT22;59374;53.210;5.726;2022-07-17T02:02:10;11.00;99.90
52517;DHT22;59374;53.210;5.726;2022-07-17T02:04:37;11.00;99.90
52517;DHT22;59374;53.210;5.726;2022-07-17T02:07:03;11.10;99.90
52517;DHT22;59374;53.210;5.726;2022-07-17T02:09:29;11.10;99.90
52517;DHT22;59374;53.210;5.726;2022-07-17T02:11:54;11.00;99.90
52517;DHT22;59374;53.210;5.726;2022-07-17T02:14:20;11.00;99.90
52517;DHT22;59374;53.210;5.726;2022-07-17T02:16:46;10.90;99.90
52517;DHT22;59374;53.210;5.726;2022-07-17T02:19:11;10.90;99.90
52517;DHT22;59374;53.210;5.726;2022-07-17T02:21:37;10.90;99.90
52517;DHT22;59374;53.210;5.726;2022-07-17T02:24:02;10.90;99.90
52517;DHT22;59374;53.210;5.726;2022-07-17T02:26:28;10.90;99.90
52517;DHT22;59374;53.210;5.726;2022-07-17T02:28:54;10.80;99.90
52517;DHT22;59374;53.210;5.726;2022-07-17T02:31:20;10.90;99.90
52517;DHT22;59374;53.210;5.726;2022-07-17T02:33:45;10.80;99.90
52517;DHT22;59374;53.210;5.726;2022-07-17T02:36:11;10.80;99.90
52517;DHT22;59374;53.210;5.726;2022-07-17T02:38:37;10.80;99.90
52517;DHT22;59374;53.210;5.726;2022-07-17T02:41:02;10.80;99.90
52517;DHT22;59374;53.210;5.726;2022-07-17T02:43:28;10.80;99.90
52517;DHT22;59374;53.210;5.726;2022-07-17T02:45:53;10.80;99.90
52517;DHT22;59374;53.210;5.726;2022-07-17T02:48:19;10.80;99.90
52517;DHT22;59374;53.210;5.726;2022-07-17T02:50:44;10.80;99.90
52517;DHT22;59374;53.210;5.726;2022-07-17T02:53:10;10.80;99.90
52517;DHT22;59374;53.210;5.726;2022-07-17T02:55:35;10.80;99.90
52517;DHT22;59374;53.210;5.726;2022-07-17T02:58:01;10.80;99.90
52517;DHT22;59374;53.210;5.726;2022-07-17T03:00:26;10.80;99.90
52517;DHT22;59374;53.210;5.726;2022-07-17T03:02:52;10.90;99.90
52517;DHT22;59374;53.210;5.726;2022-07-17T03:05:18;10.90;99.90
52517;DHT22;59374;53.210;5.726;2022-07-17T03:07:43;10.90;99.90
52517;DHT22;59374;53.210;5.726;2022-07-17T03:10:12;10.90;99.90
52517;DHT22;59374;53.210;5.726;2022-07-17T03:12:38;10.90;99.90
52517;DHT22;59374;53.210;5.726;2022-07-17T03:15:04;10.90;99.90
52517;DHT22;59374;53.210;5.726;2022-07-17T03:17:30;10.90;99.90
52517;DHT22;59374;53.210;5.726;2022-07-17T03:19:55;10.90;99.90
52517;DHT22;59374;53.210;5.726;2022-07-17T03:22:21;11.00;99.90
52517;DHT22;59374;53.210;5.726;2022-07-17T03:24:46;11.00;99.90
52517;DHT22;59374;53.210;5.726;2022-07-17T03:27:12;11.10;99.90
52517;DHT22;59374;53.210;5.726;2022-07-17T03:29:37;11.10;99.90
52517;DHT22;59374;53.210;5.726;2022-07-17T03:32:03;11.20;99.90
52517;DHT22;59374;53.210;5.726;2022-07-17T03:34:29;11.20;99.90
52517;DHT22;59374;53.210;5.726;2022-07-17T03:36:54;11.30;99.90
52517;DHT22;59374;53.210;5.726;2022-07-17T03:39:20;11.40;99.90
52517;DHT22;59374;53.210;5.726;2022-07-17T03:41:45;11.50;99.90
52517;DHT22;59374;53.210;5.726;2022-07-17T03:44:11;11.50;99.90
52517;DHT22;59374;53.210;5.726;2022-07-17T03:46:36;11.60;99.90
52517;DHT22;59374;53.210;5.726;2022-07-17T03:49:02;11.70;99.90
52517;DHT22;59374;53.210;5.726;2022-07-17T03:51:27;11.70;99.90
52517;DHT22;59374;53.210;5.726;2022-07-17T03:53:53;11.80;99.90
52517;DHT22;59374;53.210;5.726;2022-07-17T03:56:18;11.90;99.90
52517;DHT22;59374;53.210;5.726;2022-07-17T03:58:44;11.90;99.90
52517;DHT22;59374;53.210;5.726;2022-07-17T04:01:10;11.90;99.90
52517;DHT22;59374;53.210;5.726;2022-07-17T04:03:35;12.00;99.90
52517;DHT22;59374;53.210;5.726;2022-07-17T04:06:01;12.00;99.90
52517;DHT22;59374;53.210;5.726;2022-07-17T04:08:27;12.10;99.90
52517;DHT22;59374;53.210;5.726;2022-07-17T04:10:52;12.10;99.90
52517;DHT22;59374;53.210;5.726;2022-07-17T04:13:18;12.10;99.90
52517;DHT22;59374;53.210;5.726;2022-07-17T04:15:43;12.10;99.90
52517;DHT22;59374;53.210;5.726;2022-07-17T04:18:19;12.20;99.90
52517;DHT22;59374;53.210;5.726;2022-07-17T04:20:45;12.20;99.90
52517;DHT22;59374;53.210;5.726;2022-07-17T04:23:11;12.30;99.90
52517;DHT22;59374;53.210;5.726;2022-07-17T04:25:36;12.30;99.90
52517;DHT22;59374;53.210;5.726;2022-07-17T04:28:02;12.40;99.90
52517;DHT22;59374;53.210;5.726;2022-07-17T04:30:28;12.40;99.90
52517;DHT22;59374;53.210;5.726;2022-07-17T04:32:53;12.50;99.90
52517;DHT22;59374;53.210;5.726;2022-07-17T04:35:19;12.60;99.90
52517;DHT22;59374;53.210;5.726;2022-07-17T04:37:44;12.60;99.90
52517;DHT22;59374;53.210;5.726;2022-07-17T04:40:10;12.70;99.90
52517;DHT22;59374;53.210;5.726;2022-07-17T04:42:36;12.70;99.90
52517;DHT22;59374;53.210;5.726;2022-07-17T04:45:01;12.80;99.90
52517;DHT22;59374;53.210;5.726;2022-07-17T04:47:27;12.80;99.90
52517;DHT22;59374;53.210;5.726;2022-07-17T04:49:52;13.00;99.90
52517;DHT22;59374;53.210;5.726;2022-07-17T04:52:18;13.00;99.90
52517;DHT22;59374;53.210;5.726;2022-07-17T04:54:43;13.10;99.90
52517;DHT22;59374;53.210;5.726;2022-07-17T04:57:09;13.10;99.90
52517;DHT22;59374;53.210;5.726;2022-07-17T04:59:34;13.20;99.90
52517;DHT22;59374;53.210;5.726;2022-07-17T05:02:02;13.30;99.90
52517;DHT22;59374;53.210;5.726;2022-07-17T05:04:28;13.30;99.90
52517;DHT22;59374;53.210;5.726;2022-07-17T05:06:53;13.40;99.90
52517;DHT22;59374;53.210;5.726;2022-07-17T05:09:19;13.40;99.90
52517;DHT22;59374;53.210;5.726;2022-07-17T05:11:44;13.40;99.90
52517;DHT22;59374;53.210;5.726;2022-07-17T05:14:10;13.50;99.90
52517;DHT22;59374;53.210;5.726;2022-07-17T05:16:35;13.60;99.90
52517;DHT22;59374;53.210;5.726;2022-07-17T05:19:01;13.60;99.90
52517;DHT22;59374;53.210;5.726;2022-07-17T05:21:27;13.70;99.90
52517;DHT22;59374;53.210;5.726;2022-07-17T05:23:52;13.70;99.90
52517;DHT22;59374;53.210;5.726;2022-07-17T05:26:18;13.70;99.90
52517;DHT22;59374;53.210;5.726;2022-07-17T05:28:43;13.90;99.90
52517;DHT22;59374;53.210;5.726;2022-07-17T05:31:09;13.90;99.90
52517;DHT22;59374;53.210;5.726;2022-07-17T05:33:34;14.00;99.90
52517;DHT22;59374;53.210;5.726;2022-07-17T05:36:00;14.10;99.90
52517;DHT22;59374;53.210;5.726;2022-07-17T05:38:26;14.20;99.90
52517;DHT22;59374;53.210;5.726;2022-07-17T05:40:51;14.20;99.90
52517;DHT22;59374;53.210;5.726;2022-07-17T05:43:17;14.20;99.90
52517;DHT22;59374;53.210;5.726;2022-07-17T05:45:42;14.30;99.90
52517;DHT22;59374;53.210;5.726;2022-07-17T05:48:08;14.30;99.90
52517;DHT22;59374;53.210;5.726;2022-07-17T05:50:34;14.40;99.90
52517;DHT22;59374;53.210;5.726;2022-07-17T05:53:00;14.50;99.90
52517;DHT22;59374;53.210;5.726;2022-07-17T05:55:25;14.60;99.90
52517;DHT22;59374;53.210;5.726;2022-07-17T05:57:51;14.70;99.90
52517;DHT22;59374;53.210;5.726;2022-07-17T06:00:16;14.70;99.90
52517;DHT22;59374;53.210;5.726;2022-07-17T06:02:43;14.80;99.90
52517;DHT22;59374;53.210;5.726;2022-07-17T06:05:09;14.90;99.90
52517;DHT22;59374;53.210;5.726;2022-07-17T06:07:35;15.00;99.90
52517;DHT22;59374;53.210;5.726;2022-07-17T06:10:01;15.20;99.90
52517;DHT22;59374;53.210;5.726;2022-07-17T06:12:27;15.30;99.90
52517;DHT22;59374;53.210;5.726;2022-07-17T06:14:52;15.50;99.90
52517;DHT22;59374;53.210;5.726;2022-07-17T06:17:18;15.60;99.90
52517;DHT22;59374;53.210;5.726;2022-07-17T06:19:44;15.80;99.90
52517;DHT22;59374;53.210;5.726;2022-07-17T06:22:10;15.90;99.90
52517;DHT22;59374;53.210;5.726;2022-07-17T06:24:35;16.10;99.90
52517;DHT22;59374;53.210;5.726;2022-07-17T06:27:01;16.20;99.90
52517;DHT22;59374;53.210;5.726;2022-07-17T06:29:26;16.30;99.90
52517;DHT22;59374;53.210;5.726;2022-07-17T06:31:52;16.40;99.90
52517;DHT22;59374;53.210;5.726;2022-07-17T06:34:17;16.50;99.90
52517;DHT22;59374;53.210;5.726;2022-07-17T06:36:43;16.60;99.90
52517;DHT22;59374;53.210;5.726;2022-07-17T06:39:08;16.70;99.90
52517;DHT22;59374;53.210;5.726;2022-07-17T06:41:34;16.90;99.90
52517;DHT22;59374;53.210;5.726;2022-07-17T06:43:59;17.00;99.90
52517;DHT22;59374;53.210;5.726;2022-07-17T06:46:26;17.10;99.90
52517;DHT22;59374;53.210;5.726;2022-07-17T06:48:51;17.20;99.90
52517;DHT22;59374;53.210;5.726;2022-07-17T06:51:17;17.30;99.90
52517;DHT22;59374;53.210;5.726;2022-07-17T06:53:43;17.40;99.90
52517;DHT22;59374;53.210;5.726;2022-07-17T06:56:09;17.40;99.90
52517;DHT22;59374;53.210;5.726;2022-07-17T06:58:34;17.50;99.90
52517;DHT22;59374;53.210;5.726;2022-07-17T07:01:00;17.50;99.90
52517;DHT22;59374;53.210;5.726;2022-07-17T07:03:25;17.50;99.90
52517;DHT22;59374;53.210;5.726;2022-07-17T07:05:51;17.40;99.90
52517;DHT22;59374;53.210;5.726;2022-07-17T07:08:17;17.40;99.90
52517;DHT22;59374;53.210;5.726;2022-07-17T07:10:42;17.30;99.90
52517;DHT22;59374;53.210;5.726;2022-07-17T07:13:08;17.10;99.90
52517;DHT22;59374;53.210;5.726;2022-07-17T07:15:34;16.90;99.90
52517;DHT22;59374;53.210;5.726;2022-07-17T07:17:59;16.80;99.90
52517;DHT22;59374;53.210;5.726;2022-07-17T07:20:25;16.80;99.90
52517;DHT22;59374;53.210;5.726;2022-07-17T07:22:50;16.70;99.90
52517;DHT22;59374;53.210;5.726;2022-07-17T07:25:16;16.80;99.90
52517;DHT22;59374;53.210;5.726;2022-07-17T07:27:41;16.80;99.90
52517;DHT22;59374;53.210;5.726;2022-07-17T07:30:07;16.80;99.90
52517;DHT22;59374;53.210;5.726;2022-07-17T07:32:35;16.90;99.90
52517;DHT22;59374;53.210;5.726;2022-07-17T07:35:01;16.90;99.90
52517;DHT22;59374;53.210;5.726;2022-07-17T07:37:26;17.00;99.90
52517;DHT22;59374;53.210;5.726;2022-07-17T07:39:52;17.00;99.90
52517;DHT22;59374;53.210;5.726;2022-07-17T07:42:17;17.00;99.90
52517;DHT22;59374;53.210;5.726;2022-07-17T07:44:43;17.00;99.90
52517;DHT22;59374;53.210;5.726;2022-07-17T07:47:08;17.10;99.90
52517;DHT22;59374;53.210;5.726;2022-07-17T07:49:34;17.20;99.90
52517;DHT22;59374;53.210;5.726;2022-07-17T07:52:00;17.30;99.90
52517;DHT22;59374;53.210;5.726;2022-07-17T07:54:25;17.40;99.90
52517;DHT22;59374;53.210;5.726;2022-07-17T07:56:51;17.40;99.90
52517;DHT22;59374;53.210;5.726;2022-07-17T07:59:16;17.50;99.90
52517;DHT22;59374;53.210;5.726;2022-07-17T08:01:42;17.50;99.90
52517;DHT22;59374;53.210;5.726;2022-07-17T08:04:07;17.60;99.90
52517;DHT22;59374;53.210;5.726;2022-07-17T08:06:33;17.60;99.90
52517;DHT22;59374;53.210;5.726;2022-07-17T08:08:58;17.70;99.90
52517;DHT22;59374;53.210;5.726;2022-07-17T08:11:24;17.70;99.90
52517;DHT22;59374;53.210;5.726;2022-07-17T08:13:50;17.70;99.90
52517;DHT22;59374;53.210;5.726;2022-07-17T08:16:15;17.70;99.90
52517;DHT22;59374;53.210;5.726;2022-07-17T08:18:41;17.80;99.90
52517;DHT22;59374;53.210;5.726;2022-07-17T08:21:06;17.90;99.90
52517;DHT22;59374;53.210;5.726;2022-07-17T08:23:32;18.00;99.90
52517;DHT22;59374;53.210;5.726;2022-07-17T08:25:57;18.10;99.90
52517;DHT22;59374;53.210;5.726;2022-07-17T08:28:23;18.10;99.90
52517;DHT22;59374;53.210;5.726;2022-07-17T08:30:48;18.20;99.90
52517;DHT22;59374;53.210;5.726;2022-07-17T08:33:14;18.20;99.90
52517;DHT22;59374;53.210;5.726;2022-07-17T08:35:41;18.40;99.90
52517;DHT22;59374;53.210;5.726;2022-07-17T08:38:07;18.50;99.90
52517;DHT22;59374;53.210;5.726;2022-07-17T08:40:34;18.60;99.90
52517;DHT22;59374;53.210;5.726;2022-07-17T08:43:00;18.80;99.90
52517;DHT22;59374;53.210;5.726;2022-07-17T08:45:26;18.90;99.90
52517;DHT22;59374;53.210;5.726;2022-07-17T08:47:53;18.90;99.90
52517;DHT22;59374;53.210;5.726;2022-07-17T08:50:23;19.00;99.90
52517;DHT22;59374;53.210;5.726;2022-07-17T08:52:48;19.00;99.90
52517;DHT22;59374;53.210;5.726;2022-07-17T08:55:14;19.10;99.90
52517;DHT22;59374;53.210;5.726;2022-07-17T08:57:40;19.20;99.90
52517;DHT22;59374;53.210;5.726;2022-07-17T09:00:07;19.30;99.90
52517;DHT22;59374;53.210;5.726;2022-07-17T09:02:33;19.40;99.90
52517;DHT22;59374;53.210;5.726;2022-07-17T09:05:00;19.60;99.90
52517;DHT22;59374;53.210;5.726;2022-07-17T09:07:26;19.60;99.90
52517;DHT22;59374;53.210;5.726;2022-07-17T09:09:52;19.70;99.90
52517;DHT22;59374;53.210;5.726;2022-07-17T09:12:17;19.80;99.90
52517;DHT22;59374;53.210;5.726;2022-07-17T09:14:43;20.00;99.90
52517;DHT22;59374;53.210;5.726;2022-07-17T09:17:09;19.90;99.90
52517;DHT22;59374;53.210;5.726;2022-07-17T09:19:41;20.00;99.90
52517;DHT22;59374;53.210;5.726;2022-07-17T09:22:09;20.00;99.90
52517;DHT22;59374;53.210;5.726;2022-07-17T09:24:42;20.10;99.90
52517;DHT22;59374;53.210;5.726;2022-07-17T09:27:08;20.10;99.90
52517;DHT22;59374;53.210;5.726;2022-07-17T09:29:34;20.10;99.90
52517;DHT22;59374;53.210;5.726;2022-07-17T09:31:59;20.20;99.90
52517;DHT22;59374;53.210;5.726;2022-07-17T09:34:25;20.30;99.90
52517;DHT22;59374;53.210;5.726;2022-07-17T09:36:59;20.50;99.90
52517;DHT22;59374;53.210;5.726;2022-07-17T09:39:33;20.60;99.90
52517;DHT22;59374;53.210;5.726;2022-07-17T09:41:59;20.70;99.90
52517;DHT22;59374;53.210;5.726;2022-07-17T09:44:24;20.80;99.90
52517;DHT22;59374;53.210;5.726;2022-07-17T09:46:51;20.90;99.90
52517;DHT22;59374;53.210;5.726;2022-07-17T09:49:16;20.90;99.90
52517;DHT22;59374;53.210;5.726;2022-07-17T09:51:43;21.00;99.90
52517;DHT22;59374;53.210;5.726;2022-07-17T09:54:10;21.20;99.90
52517;DHT22;59374;53.210;5.726;2022-07-17T09:56:38;21.40;99.90
52517;DHT22;59374;53.210;5.726;2022-07-17T10:01:30;21.60;99.90
52517;DHT22;59374;53.210;5.726;2022-07-17T10:03:56;21.70;99.90
52517;DHT22;59374;53.210;5.726;2022-07-17T10:06:22;21.80;99.90
52517;DHT22;59374;53.210;5.726;2022-07-17T10:08:49;21.80;99.90
52517;DHT22;59374;53.210;5.726;2022-07-17T10:11:15;22.00;99.90
52517;DHT22;59374;53.210;5.726;2022-07-17T10:13:43;21.90;99.90
52517;DHT22;59374;53.210;5.726;2022-07-17T10:16:09;22.10;99.90
52517;DHT22;59374;53.210;5.726;2022-07-17T10:18:35;22.20;99.90
52517;DHT22;59374;53.210;5.726;2022-07-17T10:21:11;22.20;99.90
52517;DHT22;59374;53.210;5.726;2022-07-17T10:23:37;22.30;99.90
52517;DHT22;59374;53.210;5.726;2022-07-17T10:26:03;22.30;99.90
52517;DHT22;59374;53.210;5.726;2022-07-17T10:28:39;22.30;99.90
52517;DHT22;59374;53.210;5.726;2022-07-17T10:31:04;22.40;99.90
52517;DHT22;59374;53.210;5.726;2022-07-17T10:33:30;22.50;99.90
52517;DHT22;59374;53.210;5.726;2022-07-17T10:35:55;22.70;99.90
52517;DHT22;59374;53.210;5.726;2022-07-17T10:38:24;22.80;99.90
52517;DHT22;59374;53.210;5.726;2022-07-17T10:41:00;22.80;99.90
52517;DHT22;59374;53.210;5.726;2022-07-17T10:43:26;23.10;99.90
52517;DHT22;59374;53.210;5.726;2022-07-17T10:45:52;23.20;99.90
52517;DHT22;59374;53.210;5.726;2022-07-17T10:48:19;23.20;99.90
52517;DHT22;59374;53.210;5.726;2022-07-17T10:50:54;23.10;99.90
52517;DHT22;59374;53.210;5.726;2022-07-17T10:55:49;23.40;99.90
52517;DHT22;59374;53.210;5.726;2022-07-17T11:03:33;23.80;99.00
52517;DHT22;59374;53.210;5.726;2022-07-17T11:06:16;23.80;98.70
52517;DHT22;59374;53.210;5.726;2022-07-17T11:08:53;23.90;99.30
52517;DHT22;59374;53.210;5.726;2022-07-17T11:11:20;24.10;99.60
52517;DHT22;59374;53.210;5.726;2022-07-17T11:13:46;24.30;98.00
52517;DHT22;59374;53.210;5.726;2022-07-17T11:16:11;24.30;97.50
52517;DHT22;59374;53.210;5.726;2022-07-17T11:18:45;24.20;97.90
52517;DHT22;59374;53.210;5.726;2022-07-17T11:21:10;24.00;97.50
52517;DHT22;59374;53.210;5.726;2022-07-17T11:23:36;24.10;96.70
52517;DHT22;59374;53.210;5.726;2022-07-17T11:26:05;24.10;96.40
52517;DHT22;59374;53.210;5.726;2022-07-17T11:30:57;24.20;96.50
52517;DHT22;59374;53.210;5.726;2022-07-17T11:33:22;24.50;97.10
52517;DHT22;59374;53.210;5.726;2022-07-17T11:35:48;24.60;96.90
52517;DHT22;59374;53.210;5.726;2022-07-17T11:38:14;24.90;97.10
52517;DHT22;59374;53.210;5.726;2022-07-17T11:40:46;25.20;97.20
52517;DHT22;59374;53.210;5.726;2022-07-17T11:43:12;25.50;95.90
52517;DHT22;59374;53.210;5.726;2022-07-17T11:45:37;25.80;96.00
52517;DHT22;59374;53.210;5.726;2022-07-17T11:48:05;25.50;94.50
52517;DHT22;59374;53.210;5.726;2022-07-17T11:50:30;25.40;95.10
52517;DHT22;59374;53.210;5.726;2022-07-17T11:52:59;25.30;94.80
52517;DHT22;59374;53.210;5.726;2022-07-17T11:55:25;25.20;95.40
52517;DHT22;59374;53.210;5.726;2022-07-17T11:57:59;25.40;95.70
52517;DHT22;59374;53.210;5.726;2022-07-17T12:00:25;25.70;95.20
52517;DHT22;59374;53.210;5.726;2022-07-17T12:03:04;26.00;95.00
52517;DHT22;59374;53.210;5.726;2022-07-17T12:05:30;25.80;94.60
52517;DHT22;59374;53.210;5.726;2022-07-17T12:07:56;25.60;94.50
52517;DHT22;59374;53.210;5.726;2022-07-17T12:10:23;25.50;95.00
52517;DHT22;59374;53.210;5.726;2022-07-17T12:12:57;25.80;95.40
52517;DHT22;59374;53.210;5.726;2022-07-17T12:15:36;26.00;94.80
52517;DHT22;59374;53.210;5.726;2022-07-17T12:18:02;26.00;94.60
52517;DHT22;59374;53.210;5.726;2022-07-17T12:20:39;26.20;94.30
52517;DHT22;59374;53.210;5.726;2022-07-17T12:23:05;26.10;95.00
52517;DHT22;59374;53.210;5.726;2022-07-17T12:25:30;26.00;95.60
52517;DHT22;59374;53.210;5.726;2022-07-17T12:27:56;26.20;95.90
52517;DHT22;59374;53.210;5.726;2022-07-17T12:30:22;26.40;94.80
52517;DHT22;59374;53.210;5.726;2022-07-17T12:32:47;26.60;95.40
52517;DHT22;59374;53.210;5.726;2022-07-17T12:35:13;26.80;95.00
52517;DHT22;59374;53.210;5.726;2022-07-17T12:37:39;27.10;95.40
52517;DHT22;59374;53.210;5.726;2022-07-17T12:40:05;27.00;94.30
52517;DHT22;59374;53.210;5.726;2022-07-17T12:42:31;26.80;94.30
52517;DHT22;59374;53.210;5.726;2022-07-17T12:44:56;26.70;93.70
52517;DHT22;59374;53.210;5.726;2022-07-17T12:47:22;26.50;94.40
52517;DHT22;59374;53.210;5.726;2022-07-17T12:49:48;26.40;94.60
52517;DHT22;59374;53.210;5.726;2022-07-17T12:52:13;26.40;95.10
52517;DHT22;59374;53.210;5.726;2022-07-17T12:54:39;25.90;95.70
52517;DHT22;59374;53.210;5.726;2022-07-17T12:57:05;26.10;96.10
52517;DHT22;59374;53.210;5.726;2022-07-17T12:59:30;26.30;96.00
52517;DHT22;59374;53.210;5.726;2022-07-17T13:01:56;26.10;95.60
52517;DHT22;59374;53.210;5.726;2022-07-17T13:04:21;26.00;96.10
52517;DHT22;59374;53.210;5.726;2022-07-17T13:06:47;26.10;96.10
52517;DHT22;59374;53.210;5.726;2022-07-17T13:09:13;26.10;96.20
52517;DHT22;59374;53.210;5.726;2022-07-17T13:11:41;26.10;95.80
52517;DHT22;59374;53.210;5.726;2022-07-17T13:14:07;26.20;95.00
52517;DHT22;59374;53.210;5.726;2022-07-17T13:16:40;26.20;95.70
52517;DHT22;59374;53.210;5.726;2022-07-17T13:19:05;26.10;96.10
52517;DHT22;59374;53.210;5.726;2022-07-17T13:21:31;25.90;95.10
52517;DHT22;59374;53.210;5.726;2022-07-17T13:23:56;26.10;95.00
52517;DHT22;59374;53.210;5.726;2022-07-17T13:26:22;26.40;95.10
52517;DHT22;59374;53.210;5.726;2022-07-17T13:28:47;26.40;94.60
52517;DHT22;59374;53.210;5.726;2022-07-17T13:31:13;26.40;94.50
52517;DHT22;59374;53.210;5.726;2022-07-17T13:33:39;26.70;94.40
52517;DHT22;59374;53.210;5.726;2022-07-17T13:36:04;27.00;95.00
52517;DHT22;59374;53.210;5.726;2022-07-17T13:38:30;27.10;94.00
52517;DHT22;59374;53.210;5.726;2022-07-17T13:40:55;27.20;93.50
52517;DHT22;59374;53.210;5.726;2022-07-17T13:43:21;27.50;94.90
52517;DHT22;59374;53.210;5.726;2022-07-17T13:45:47;27.70;95.10
52517;DHT22;59374;53.210;5.726;2022-07-17T13:48:12;28.30;94.60
52517;DHT22;59374;53.210;5.726;2022-07-17T13:50:40;28.50;93.50
52517;DHT22;59374;53.210;5.726;2022-07-17T13:53:05;29.00;94.20
52517;DHT22;59374;53.210;5.726;2022-07-17T13:55:31;29.30;92.90
52517;DHT22;59374;53.210;5.726;2022-07-17T13:57:56;29.30;92.20
52517;DHT22;59374;53.210;5.726;2022-07-17T14:00:22;29.20;92.20
52517;DHT22;59374;53.210;5.726;2022-07-17T14:02:47;29.10;91.90
52517;DHT22;59374;53.210;5.726;2022-07-17T14:08:29;29.30;92.20
52517;DHT22;59374;53.210;5.726;2022-07-17T14:10:56;29.80;91.40
52517;DHT22;59374;53.210;5.726;2022-07-17T14:13:22;29.50;90.70
52517;DHT22;59374;53.210;5.726;2022-07-17T14:15:47;29.40;90.70
52517;DHT22;59374;53.210;5.726;2022-07-17T14:18:13;29.60;90.80
52517;DHT22;59374;53.210;5.726;2022-07-17T14:20:38;29.90;90.70
52517;DHT22;59374;53.210;5.726;2022-07-17T14:23:04;30.50;90.60
52517;DHT22;59374;53.210;5.726;2022-07-17T14:25:29;31.00;90.60
52517;DHT22;59374;53.210;5.726;2022-07-17T14:27:55;31.20;89.90
52517;DHT22;59374;53.210;5.726;2022-07-17T14:30:21;31.50;89.60
52517;DHT22;59374;53.210;5.726;2022-07-17T14:32:46;31.90;88.40
52517;DHT22;59374;53.210;5.726;2022-07-17T14:35:12;32.10;87.50
52517;DHT22;59374;53.210;5.726;2022-07-17T14:37:38;31.60;86.40
52517;DHT22;59374;53.210;5.726;2022-07-17T14:40:04;31.60;87.40
52517;DHT22;59374;53.210;5.726;2022-07-17T14:42:29;31.90;87.00
52517;DHT22;59374;53.210;5.726;2022-07-17T14:44:59;32.10;86.60
52517;DHT22;59374;53.210;5.726;2022-07-17T14:47:24;32.30;86.00
52517;DHT22;59374;53.210;5.726;2022-07-17T14:49:50;32.80;86.40
52517;DHT22;59374;53.210;5.726;2022-07-17T14:52:16;33.40;84.40
52517;DHT22;59374;53.210;5.726;2022-07-17T14:54:41;32.80;84.90
52517;DHT22;59374;53.210;5.726;2022-07-17T14:57:07;33.20;84.40
52517;DHT22;59374;53.210;5.726;2022-07-17T14:59:32;33.40;84.70
52517;DHT22;59374;53.210;5.726;2022-07-17T15:01:58;33.60;83.10
52517;DHT22;59374;53.210;5.726;2022-07-17T15:04:24;33.40;83.00
52517;DHT22;59374;53.210;5.726;2022-07-17T15:06:50;32.90;81.80
52517;DHT22;59374;53.210;5.726;2022-07-17T15:09:15;32.70;82.30
52517;DHT22;59374;53.210;5.726;2022-07-17T15:11:41;32.60;83.00
52517;DHT22;59374;53.210;5.726;2022-07-17T15:14:07;33.30;81.80
52517;DHT22;59374;53.210;5.726;2022-07-17T15:16:32;33.70;83.40
52517;DHT22;59374;53.210;5.726;2022-07-17T15:18:57;34.40;80.50
52517;DHT22;59374;53.210;5.726;2022-07-17T15:21:23;35.00;80.80
52517;DHT22;59374;53.210;5.726;2022-07-17T15:23:49;35.40;79.40
52517;DHT22;59374;53.210;5.726;2022-07-17T15:26:14;35.10;78.70
52517;DHT22;59374;53.210;5.726;2022-07-17T15:28:40;35.40;80.70
52517;DHT22;59374;53.210;5.726;2022-07-17T15:31:05;36.30;78.90
52517;DHT22;59374;53.210;5.726;2022-07-17T15:33:31;36.50;77.30
52517;DHT22;59374;53.210;5.726;2022-07-17T15:35:58;36.20;76.00
52517;DHT22;59374;53.210;5.726;2022-07-17T15:38:23;35.30;76.10